Time;durP1;ratioP1;P1;durP2;ratioP2;P2;SDS_P1;SDS_P2;PMS_P1;PMS_P2;Temp;Humidity;BMP_temperature;BMP_pressure;BME280_temperature;BME280_humidity;BME280_pressure;Samples;Min_cycle;Max_cycle;Signal;HPM_P1;HPM_P2
2022/01/27 00:02:44;;;;;;;69.33;63.63;;;;;;;6.09;100.00;102938.64;1959754;70;39592;-74
2022/01/27 00:08:23;;;;;;;71.80;66.03;;;;;;;6.29;100.00;102928.02;1840070;76;86197;-73
2022/01/27 00:14:05;;;;;;;69.50;63.63;;;;;;;6.62;100.00;102924.53;1809981;78;85497;-74
2022/01/27 00:19:49;;;;;;;66.43;60.97;;;;;;;6.74;100.00;102923.70;1900301;74;86474;-73
2022/01/27 00:25:36;;;;;;;68.30;62.90;;;;;;;6.83;100.00;102910.55;1985578;71;39543;-74
2022/01/27 00:31:22;;;;;;;66.67;61.17;;;;;;;6.95;100.00;102917.15;1810026;78;86443;-73
2022/01/27 00:37:08;;;;;;;71.30;65.63;;;;;;;6.91;100.00;102916.40;1880878;75;86266;-73
2022/01/27 00:42:53;;;;;;;68.83;63.17;;;;;;;6.93;100.00;102917.05;1878372;75;85674;-73
2022/01/27 00:48:37;;;;;;;68.37;62.57;;;;;;;7.12;100.00;102915.67;1908522;72;86700;-73
2022/01/27 00:54:24;;;;;;;68.97;63.57;;;;;;;7.22;100.00;102918.88;1890809;74;86077;-73
2022/01/27 01:00:12;;;;;;;72.73;66.93;;;;;;;7.35;100.00;102899.20;1885741;74;86018;-73
2022/01/27 01:06:13;;;;;;;70.43;64.70;;;;;;;7.37;100.00;102896.52;1888571;75;85127;-73
2022/01/27 01:18:03;;;;;;;71.17;65.63;;;;;;;7.42;100.00;102888.44;1887521;74;86244;-72
2022/01/27 01:29:56;;;;;;;69.63;64.20;;;;;;;7.46;100.00;102871.73;1907455;74;85309;-73
2022/01/27 01:35:47;;;;;;;70.53;65.13;;;;;;;7.49;100.00;102864.91;1922147;73;86412;-74
2022/01/27 01:41:27;;;;;;;70.37;64.47;;;;;;;7.52;100.00;102865.89;1984642;71;39673;-74
2022/01/27 01:47:11;;;;;;;71.10;65.73;;;;;;;7.52;100.00;102867.27;1820832;76;86251;-72
2022/01/27 01:52:55;;;;;;;68.60;63.20;;;;;;;7.56;100.00;102861.63;1935348;73;86679;-73
2022/01/27 01:58:40;;;;;;;71.30;65.53;;;;;;;7.73;100.00;102850.41;1919169;74;86415;-74
2022/01/27 02:04:24;;;;;;;69.73;64.57;;;;;;;7.77;100.00;102840.08;1924107;72;39658;-74
2022/01/27 02:10:27;;;;;;;69.57;64.50;;;;;;;7.80;100.00;102840.16;1896494;74;86408;-72
2022/01/27 02:22:00;;;;;;;67.90;62.70;;;;;;;7.84;100.00;102832.27;1893113;74;86299;-74
2022/01/27 02:27:46;;;;;;;69.57;64.57;;;;;;;7.69;100.00;102837.55;1918714;72;86064;-74
2022/01/27 02:33:33;;;;;;;69.27;63.97;;;;;;;7.62;100.00;102841.38;1978314;71;39998;-73
2022/01/27 02:39:21;;;;;;;70.47;65.23;;;;;;;7.62;100.00;102827.55;1808303;78;86454;-74
2022/01/27 02:45:14;;;;;;;66.07;61.03;;;;;;;7.72;100.00;102829.34;1843421;76;86545;-73
2022/01/27 02:51:01;;;;;;;66.60;61.53;;;;;;;7.72;100.00;102805.83;1873012;75;86487;-74
2022/01/27 02:56:47;;;;;;;68.30;63.23;;;;;;;7.95;100.00;102815.00;1918725;72;86300;-72
2022/01/27 03:02:33;;;;;;;69.40;64.50;;;;;;;7.97;100.00;102811.45;1981051;71;39623;-73
2022/01/27 03:08:16;;;;;;;68.70;63.70;;;;;;;8.07;100.00;102799.39;1839706;76;86161;-74
2022/01/27 03:14:01;;;;;;;66.73;61.97;;;;;;;8.11;100.00;102801.49;1882841;73;86356;-73
2022/01/27 03:19:44;;;;;;;71.17;65.97;;;;;;;8.18;100.00;102799.53;1908891;74;86468;-75
2022/01/27 03:25:29;;;;;;;67.07;62.03;;;;;;;8.24;100.00;102788.11;1984548;71;39605;-74
2022/01/27 03:31:13;;;;;;;66.77;61.57;;;;;;;8.28;100.00;102764.97;1851751;76;85793;-72
2022/01/27 03:36:58;;;;;;;67.60;62.70;;;;;;;8.29;100.00;102768.95;1886799;74;86744;-74
2022/01/27 03:42:50;;;;;;;66.47;61.40;;;;;;;8.36;100.00;102768.88;1924838;71;86256;-72
2022/01/27 03:48:30;;;;;;;69.53;64.63;;;;;;;8.40;100.00;102771.52;1973749;70;39472;-72
2022/01/27 03:54:15;;;;;;;68.13;63.23;;;;;;;8.47;100.00;102770.95;1832526;76;86311;-72
2022/01/27 03:59:59;;;;;;;66.90;62.10;;;;;;;8.47;100.00;102778.70;1874197;75;86280;-79
2022/01/27 04:05:48;;;;;;;65.93;61.23;;;;;;;8.46;100.00;102771.48;1912992;74;86736;-76
2022/01/27 04:11:29;;;;;;;66.27;61.47;;;;;;;8.46;100.00;102765.95;1983723;70;39470;-73
2022/01/27 04:17:13;;;;;;;63.37;58.53;;;;;;;8.56;100.00;102755.73;1844274;76;86328;-73
2022/01/27 04:22:57;;;;;;;66.83;62.07;;;;;;;8.59;100.00;102758.06;1880182;74;85945;-73
2022/01/27 04:28:42;;;;;;;64.63;59.93;;;;;;;8.61;100.00;102743.44;1911202;72;86530;-73
2022/01/27 04:34:27;;;;;;;62.33;57.83;;;;;;;8.65;100.00;102742.77;1945663;71;39493;-74
2022/01/27 04:40:15;;;;;;;66.43;61.63;;;;;;;8.66;100.00;102713.14;1854615;76;85671;-72
2022/01/27 04:46:07;;;;;;;63.03;58.43;;;;;;;8.60;100.00;102721.81;1884865;73;86288;-72
2022/01/27 04:51:46;;;;;;;64.57;59.53;;;;;;;8.58;100.00;102718.97;1914957;73;86575;-72
2022/01/27 04:57:31;;;;;;;62.87;58.10;;;;;;;8.63;100.00;102720.53;1941743;71;39499;-75
2022/01/27 05:03:22;;;;;;;62.77;58.07;;;;;;;8.69;100.00;102740.38;1855411;76;86427;-78
2022/01/27 05:09:01;;;;;;;65.17;60.47;;;;;;;8.69;100.00;102737.61;1891363;74;86003;-73
2022/01/27 05:14:45;;;;;;;63.33;58.43;;;;;;;8.69;100.00;102725.14;1918746;74;85557;-72
2022/01/27 05:20:29;;;;;;;61.63;57.13;;;;;;;8.71;100.00;102704.15;1984607;71;39508;-73
2022/01/27 05:26:13;;;;;;;64.97;60.17;;;;;;;8.76;100.00;102721.80;1846393;76;85965;-73
2022/01/27 05:31:58;;;;;;;63.77;59.07;;;;;;;8.75;100.00;102713.16;1889650;74;86380;-74
2022/01/27 05:37:42;;;;;;;66.90;62.00;;;;;;;8.73;100.00;102706.98;1909867;72;86198;-73
2022/01/27 05:43:29;;;;;;;64.20;59.40;;;;;;;8.73;100.00;102711.70;1978006;71;39517;-73
2022/01/27 05:49:14;;;;;;;65.30;60.60;;;;;;;8.73;100.00;102702.83;1842560;76;86419;-73
2022/01/27 05:54:58;;;;;;;68.10;63.07;;;;;;;8.79;100.00;102696.39;1874042;75;85428;-74
2022/01/27 06:00:42;;;;;;;68.40;63.20;;;;;;;8.79;100.00;102708.86;1857475;76;86087;-74
2022/01/27 06:06:25;;;;;;;66.30;61.17;;;;;;;8.81;100.00;102715.04;1984282;71;39754;-74
2022/01/27 06:12:11;;;;;;;64.70;59.93;;;;;;;8.87;100.00;102716.88;1844739;75;86028;-72
2022/01/27 06:17:57;;;;;;;64.53;59.60;;;;;;;8.94;100.00;102718.21;1888245;73;86001;-74
2022/01/27 06:23:42;;;;;;;65.00;60.20;;;;;;;8.95;100.00;102718.50;1912197;73;86486;-73
2022/01/27 06:29:26;;;;;;;66.27;61.30;;;;;;;9.04;100.00;102734.61;1983324;71;39588;-73
2022/01/27 06:35:13;;;;;;;63.63;58.83;;;;;;;9.03;100.00;102725.98;1832576;76;86561;-73
2022/01/27 06:40:58;;;;;;;63.60;58.60;;;;;;;9.09;100.00;102735.31;1914266;73;86247;-72
2022/01/27 06:46:43;;;;;;;65.67;60.83;;;;;;;9.05;100.00;102754.87;1942955;73;86558;-72
2022/01/27 06:52:28;;;;;;;62.67;57.87;;;;;;;9.01;100.00;102753.09;1983541;71;39763;-74
2022/01/27 06:58:16;;;;;;;64.53;59.63;;;;;;;9.07;100.00;102740.25;1846954;75;86063;-73
2022/01/27 07:04:01;;;;;;;63.20;58.50;;;;;;;9.13;100.00;102743.48;1940672;73;85449;-73
2022/01/27 07:09:44;;;;;;;60.83;56.33;;;;;;;9.18;100.00;102745.56;1918517;74;86374;-76
2022/01/27 07:15:30;;;;;;;61.33;56.73;;;;;;;9.22;100.00;102743.48;1941062;71;39654;-73
2022/01/27 07:21:14;;;;;;;62.90;58.33;;;;;;;9.25;100.00;102754.11;1836430;75;86341;-75
2022/01/27 07:26:59;;;;;;;63.37;58.87;;;;;;;9.29;100.00;102749.80;1871871;75;86330;-72
2022/01/27 07:32:46;;;;;;;67.70;63.00;;;;;;;9.36;100.00;102761.69;1916688;72;86184;-73
2022/01/27 07:38:29;;;;;;;65.70;60.93;;;;;;;9.34;100.00;102764.36;1973845;71;75507;-73
2022/01/27 07:44:13;;;;;;;65.30;60.40;;;;;;;9.35;100.00;102757.74;1836595;75;85338;-74
2022/01/27 07:49:59;;;;;;;67.93;62.90;;;;;;;9.35;100.00;102761.91;1868156;75;86483;-73
2022/01/27 07:55:43;;;;;;;63.50;58.90;;;;;;;9.40;100.00;102760.67;1908937;72;86119;-76
2022/01/27 08:01:26;;;;;;;61.93;57.43;;;;;;;9.47;100.00;102769.76;1984116;70;43636;-72
2022/01/27 08:10:23;;;;;;;62.20;57.70;;;;;;;9.30;100.00;102732.09;1980043;71;39521;-71
2022/01/27 08:16:08;;;;;;;60.57;56.17;;;;;;;9.66;100.00;102776.16;1880733;75;86177;-74
2022/01/27 08:21:54;;;;;;;63.03;58.53;;;;;;;9.76;100.00;102782.84;1891086;75;85461;-76
2022/01/27 08:27:41;;;;;;;62.73;58.23;;;;;;;9.71;100.00;102775.78;1940717;72;85740;-74
2022/01/27 08:33:29;;;;;;;62.53;58.07;;;;;;;9.77;100.00;102775.37;1984112;71;39547;-74
2022/01/27 08:39:12;;;;;;;59.43;55.07;;;;;;;9.74;100.00;102781.39;1841812;76;86188;-73
2022/01/27 08:44:56;;;;;;;60.50;56.07;;;;;;;9.74;100.00;102785.56;1882992;73;86088;-77
2022/01/27 08:50:48;;;;;;;61.97;57.40;;;;;;;9.78;100.00;102788.17;1946021;73;86376;-75
2022/01/27 08:56:28;;;;;;;60.17;55.47;;;;;;;9.76;100.00;102787.55;1986814;71;39563;-78
2022/01/27 09:02:12;;;;;;;60.67;56.17;;;;;;;9.83;100.00;102789.19;1840641;76;85374;-73
2022/01/27 09:07:57;;;;;;;60.30;55.83;;;;;;;9.92;100.00;102791.09;1870829;75;86364;-74
2022/01/27 09:13:42;;;;;;;59.10;54.50;;;;;;;9.85;100.00;102802.27;1918498;72;86181;-74
2022/01/27 09:19:27;;;;;;;57.93;53.37;;;;;;;10.00;100.00;102818.00;1986152;71;39534;-75
2022/01/27 09:25:17;;;;;;;62.10;57.40;;;;;;;10.00;100.00;102828.25;1973868;72;86327;-76
2022/01/27 09:30:59;;;;;;;59.30;54.80;;;;;;;9.90;100.00;102823.78;1894465;74;86263;-76
2022/01/27 09:36:44;;;;;;;61.13;56.17;;;;;;;9.98;100.00;102834.03;1909172;74;85922;-74
2022/01/27 09:42:31;;;;;;;62.60;57.80;;;;;;;9.98;100.00;102840.97;1942314;71;39512;-77
2022/01/27 09:48:17;;;;;;;63.60;58.83;;;;;;;10.08;100.00;102836.80;1842816;76;86280;-73
2022/01/27 09:54:02;;;;;;;65.50;60.90;;;;;;;10.05;100.00;102838.12;1809408;78;86304;-77
2022/01/27 09:59:48;;;;;;;64.60;60.00;;;;;;;10.08;100.00;102849.30;1927820;72;86463;-74
2022/01/27 10:05:31;;;;;;;68.37;63.77;;;;;;;10.08;100.00;102854.31;1944850;71;39440;-74
2022/01/27 10:11:21;;;;;;;68.57;63.67;;;;;;;10.16;100.00;102867.91;1810364;78;86498;-76
2022/01/27 10:20:23;;;;;;;67.97;63.13;;;;;;;10.26;100.00;102866.82;1977861;70;39601;-72
2022/01/27 10:26:41;;;;;;;66.77;61.80;;;;;;;10.46;100.00;102870.70;1952230;71;40311;-76
2022/01/27 10:32:14;;;;;;;68.23;63.40;;;;;;;10.56;100.00;102868.76;1827712;76;85333;-74
2022/01/27 10:41:26;;;;;;;63.53;58.63;;;;;;;10.73;100.00;102874.80;1980076;70;39555;-75
2022/01/27 10:47:29;;;;;;;60.33;55.73;;;;;;;10.89;100.00;102877.44;1987161;71;39514;-74
2022/01/27 10:53:12;;;;;;;61.53;56.53;;;;;;;11.01;100.00;102881.63;1824762;76;86515;-75
2022/01/27 10:58:58;;;;;;;61.03;56.43;;;;;;;11.15;100.00;102876.16;1882067;74;86308;-75
2022/01/27 11:04:47;;;;;;;63.10;58.33;;;;;;;11.25;100.00;102881.98;1908900;72;86219;-72
2022/01/27 11:10:31;;;;;;;63.53;58.80;;;;;;;11.39;100.00;102872.30;1982367;70;39471;-72
2022/01/27 11:16:18;;;;;;;63.23;58.47;;;;;;;11.60;100.00;102880.04;1837691;76;86678;-73
2022/01/27 11:22:08;;;;;;;62.63;57.93;;;;;;;11.62;100.00;102877.02;1829508;76;86506;-73
2022/01/27 11:27:54;;;;;;;63.97;59.07;;;;;;;11.64;100.00;102876.22;1878500;75;86153;-78
2022/01/27 11:30:29;;;;;;;64.23;59.43;;;;;;;11.65;100.00;102888.52;1813849;73;937576;-73
2022/01/27 11:33:03;;;;;;;62.07;57.20;;;;;;;11.65;100.00;102893.23;1817687;76;939122;-75
2022/01/27 11:38:47;;;;;;;60.40;55.93;;;;;;;11.74;100.00;102875.95;1912543;73;86513;-74
2022/01/27 11:44:52;;;;;;;62.63;58.33;;;;;;;11.85;100.00;102872.88;1885059;75;86268;-78
2022/01/27 11:50:49;;;;;;;63.57;59.07;;;;;;;11.95;100.00;102863.33;1913267;74;86180;-78
2022/01/27 11:56:43;;;;;;;62.03;57.63;;;;;;;12.03;100.00;102864.34;1912418;74;86340;-75
2022/01/27 12:02:27;;;;;;;59.73;55.43;;;;;;;12.04;100.00;102863.25;1980720;71;39838;-74
2022/01/27 12:08:25;;;;;;;62.13;57.63;;;;;;;12.21;100.00;102858.59;1982406;71;39661;-78
2022/01/27 12:14:13;;;;;;;59.97;55.77;;;;;;;12.25;100.00;102870.94;1950165;71;39574;-76
2022/01/27 12:17:08;;;;;;;61.60;57.33;;;;;;;12.22;100.00;102882.59;1859173;75;936784;-78
2022/01/27 12:23:14;;;;;;;63.80;59.30;;;;;;;12.37;100.00;102873.67;1943998;71;39524;-73
2022/01/27 12:29:02;;;;;;;61.83;57.43;;;;;;;12.22;100.00;102883.13;1984884;71;39633;-73
2022/01/27 12:34:49;;;;;;;67.90;63.07;;;;;;;12.20;100.00;102884.77;1840417;76;85581;-75
2022/01/27 12:40:35;;;;;;;68.10;63.33;;;;;;;12.22;100.00;102892.34;1914729;73;86351;-74
2022/01/27 12:46:19;;;;;;;70.60;65.60;;;;;;;12.35;100.00;102905.69;1915385;74;85282;-74
2022/01/27 12:52:09;;;;;;;66.57;61.77;;;;;;;12.32;100.00;102907.05;1984015;71;39597;-77
2022/01/27 12:57:57;;;;;;;64.17;59.57;;;;;;;12.26;100.00;102905.23;1842139;76;86673;-78
2022/01/27 13:03:44;;;;;;;66.50;61.80;;;;;;;12.32;100.00;102900.08;1818990;77;86330;-74
2022/01/27 13:09:28;;;;;;;66.40;61.70;;;;;;;12.21;100.00;102904.57;1915502;73;86130;-77
2022/01/27 13:15:15;;;;;;;72.63;67.53;;;;;;;12.17;100.00;102896.41;1914061;74;86478;-77
2022/01/27 13:21:03;;;;;;;73.40;68.50;;;;;;;12.09;100.00;102882.02;1934464;71;39602;-75
2022/01/27 13:26:49;;;;;;;69.23;64.43;;;;;;;12.07;100.00;102882.25;1837957;76;86299;-74
2022/01/27 13:32:35;;;;;;;82.30;77.07;;;;;;;12.02;100.00;102884.10;1911515;73;85651;-75
2022/01/27 13:41:28;;;;;;;72.07;67.17;;;;;;;12.21;100.00;102906.51;1954298;73;85949;-78
2022/01/27 13:47:19;;;;;;;77.47;72.33;;;;;;;12.28;100.00;102908.59;1935038;72;86158;-74
2022/01/27 13:53:06;;;;;;;70.57;65.67;;;;;;;12.46;100.00;102911.76;1974444;71;39527;-74
2022/01/27 13:59:10;;;;;;;71.70;66.90;;;;;;;12.56;100.00;102917.01;1983434;72;86718;-73
2022/01/27 14:04:51;;;;;;;66.30;61.70;;;;;;;12.60;100.00;102915.96;1827855;76;85604;-76
2022/01/27 14:14:00;;;;;;;60.07;55.77;;;;;;;12.93;100.00;102920.77;1984576;71;39472;-75
2022/01/27 14:19:47;;;;;;;62.90;58.40;;;;;;;13.14;100.00;102919.52;1903201;74;86194;-75
2022/01/27 14:25:37;;;;;;;63.80;59.40;;;;;;;13.24;100.00;102913.28;1877193;75;85280;-76
2022/01/27 14:31:26;;;;;;;64.87;60.67;;;;;;;12.95;100.00;102940.91;1906637;73;86233;-75
2022/01/27 14:37:10;;;;;;;61.87;57.80;;;;;;;12.66;100.00;102938.11;1973390;71;39654;-73
2022/01/27 14:42:58;;;;;;;54.20;51.00;;;;;;;12.45;100.00;102934.60;1844813;76;86240;-72
2022/01/27 14:48:45;;;;;;;53.87;50.67;;;;;;;12.39;100.00;102913.86;1843005;76;86254;-73
2022/01/27 14:54:27;;;;;;;52.30;48.97;;;;;;;12.36;100.00;102904.61;1911219;73;86122;-74
2022/01/27 15:00:15;;;;;;;51.43;48.20;;;;;;;12.24;100.00;102891.53;1921355;74;86709;-73
2022/01/27 15:05:58;;;;;;;52.30;48.97;;;;;;;12.06;100.00;102893.11;1915622;74;39491;-72
2022/01/27 15:11:42;;;;;;;51.87;48.67;;;;;;;11.99;100.00;102903.52;1887807;74;85916;-74
2022/01/27 15:23:29;;;;;;;48.47;45.67;;;;;;;12.05;100.00;102891.95;1887677;74;86404;-79
2022/01/27 15:29:14;;;;;;;49.27;46.37;;;;;;;11.91;100.00;102890.52;1909299;73;85335;-78
2022/01/27 15:35:00;;;;;;;46.80;44.20;;;;;;;12.09;100.00;102876.44;1981291;71;39613;-77
2022/01/27 15:40:45;;;;;;;48.77;45.90;;;;;;;12.12;100.00;102871.22;1893427;74;86235;-77
2022/01/27 15:46:30;;;;;;;45.33;42.73;;;;;;;12.14;100.00;102876.02;1872031;76;85444;-75
2022/01/27 15:52:14;;;;;;;46.00;43.23;;;;;;;12.13;100.00;102876.25;1909930;72;86625;-73
2022/01/27 15:57:59;;;;;;;47.73;45.03;;;;;;;12.02;100.00;102895.24;1979876;71;39473;-75
2022/01/27 16:03:43;;;;;;;49.00;46.10;;;;;;;11.80;100.00;102897.81;1908412;74;86318;-72
2022/01/27 16:09:30;;;;;;;47.57;44.63;;;;;;;11.85;100.00;102914.07;1919213;72;86328;-74
2022/01/27 16:15:23;;;;;;;44.87;42.00;;;;;;;11.79;100.00;102910.03;1909810;73;86059;-75
2022/01/27 16:21:14;;;;;;;41.80;38.73;;;;;;;11.78;100.00;102920.32;1842306;77;86607;-76
2022/01/27 16:27:05;;;;;;;42.53;40.13;;;;;;;11.70;100.00;102930.95;1978176;71;39575;-73
2022/01/27 16:32:53;;;;;;;48.93;46.03;;;;;;;11.24;100.00;102937.31;1890001;74;86346;-74
2022/01/27 16:38:43;;;;;;;44.17;41.33;;;;;;;11.25;100.00;102951.54;1799135;78;86039;-73
2022/01/27 16:44:34;;;;;;;47.03;44.20;;;;;;;10.93;100.00;102966.25;1899684;75;86146;-73
2022/01/27 16:50:24;;;;;;;44.50;41.90;;;;;;;10.98;100.00;102988.64;1901034;73;86536;-74
2022/01/27 16:56:14;;;;;;;41.23;38.57;;;;;;;11.14;100.00;102989.89;1982612;71;39943;-74
2022/01/27 17:02:06;;;;;;;40.70;38.30;;;;;;;11.15;100.00;102986.89;1904992;74;39529;-75
2022/01/27 17:07:50;;;;;;;41.93;39.37;;;;;;;11.13;100.00;103002.95;1957012;71;86175;-75
2022/01/27 17:13:40;;;;;;;45.80;43.47;;;;;;;10.68;100.00;103008.09;1888899;74;86374;-73
2022/01/27 17:19:26;;;;;;;44.80;42.30;;;;;;;10.80;100.00;103009.53;1947104;73;86024;-75
2022/01/27 17:25:12;;;;;;;44.20;41.83;;;;;;;10.76;100.00;103022.20;1947589;73;85641;-74
2022/01/27 17:30:58;;;;;;;44.20;41.90;;;;;;;10.77;100.00;103020.59;1880238;75;86353;-74
2022/01/27 17:36:44;;;;;;;44.97;42.37;;;;;;;10.66;100.00;103031.08;1886440;74;84972;-71
2022/01/27 17:42:41;;;;;;;42.80;40.60;;;;;;;10.57;100.00;103051.92;1886797;74;86396;-76
2022/01/27 17:48:27;;;;;;;45.43;42.90;;;;;;;10.33;100.00;103071.76;1903312;72;86657;-75
2022/01/27 17:54:18;;;;;;;52.83;49.43;;;;;;;9.58;100.00;103091.70;1914325;74;85758;-73
2022/01/27 18:00:09;;;;;;;58.43;55.23;;;;;;;8.86;100.00;103128.13;1978015;71;40382;-77
2022/01/27 18:05:57;;;;;;;58.67;55.17;;;;;;;8.82;100.00;103141.25;1875065;74;86627;-76
2022/01/27 18:15:00;;;;;;;58.87;55.13;;;;;;;8.06;100.00;103143.67;1975707;71;40120;-77
2022/01/27 18:20:46;;;;;;;59.33;55.73;;;;;;;8.07;100.00;103164.23;1898551;73;85458;-81
2022/01/27 18:26:31;;;;;;;58.10;54.13;;;;;;;7.86;100.00;103181.56;1868322;76;86380;-78
2022/01/27 18:32:17;;;;;;;55.67;52.37;;;;;;;7.58;100.00;103192.23;1915247;74;86469;-75
2022/01/27 18:38:02;;;;;;;58.40;54.60;;;;;;;7.68;100.00;103191.84;1977101;71;39766;-74
2022/01/27 18:43:49;;;;;;;57.50;53.70;;;;;;;7.49;100.00;103199.53;1839997;76;85434;-73
2022/01/27 18:49:35;;;;;;;60.33;56.23;;;;;;;7.51;100.00;103193.28;1883865;73;86311;-74
2022/01/27 18:55:22;;;;;;;58.33;54.23;;;;;;;7.31;100.00;103213.42;1911045;72;86606;-77
2022/01/27 19:01:08;;;;;;;57.97;53.27;;;;;;;7.47;100.00;103223.27;1973607;71;39603;-74
2022/01/27 19:06:52;;;;;;;56.53;52.63;;;;;;;7.28;100.00;103229.02;1848153;76;86471;-73
2022/01/27 19:12:39;;;;;;;58.63;54.33;;;;;;;7.02;100.00;103230.25;1841729;76;86900;-75
2022/01/27 19:18:28;;;;;;;56.27;52.57;;;;;;;7.61;100.00;103235.23;1905135;74;86074;-77
2022/01/27 19:24:14;;;;;;;52.63;49.27;;;;;;;8.02;100.00;103237.89;1914318;72;85430;-72
2022/01/27 19:33:05;;;;;;;53.43;49.83;;;;;;;8.24;100.00;103240.80;1971616;69;39470;-75
2022/01/27 19:35:36;;;;;;;57.20;53.20;;;;;;;8.11;100.00;103256.87;1926349;73;934766;-78
2022/01/27 19:38:07;;;;;;;57.78;54.08;;;;;;;7.57;100.00;103259.66;1872723;74;938730;-74
2022/01/27 19:43:52;;;;;;;54.63;51.13;;;;;;;7.13;100.00;103267.02;1892438;74;86560;-76
2022/01/27 19:49:37;;;;;;;52.83;49.57;;;;;;;7.99;100.00;103264.09;1873744;75;86254;-73
2022/01/27 19:55:23;;;;;;;51.87;48.63;;;;;;;7.91;100.00;103260.13;1920438;72;85911;-76
2022/01/27 20:01:10;;;;;;;53.40;50.00;;;;;;;7.75;100.00;103275.17;1935442;70;39666;-75
2022/01/27 20:07:03;;;;;;;55.30;51.90;;;;;;;7.29;100.00;103282.41;1842345;76;86282;-72
2022/01/27 20:12:47;;;;;;;54.73;51.43;;;;;;;7.51;100.00;103299.23;1849150;76;85487;-74
2022/01/27 20:18:35;;;;;;;60.07;56.07;;;;;;;7.39;100.00;103323.52;1879031;74;86313;-71
2022/01/27 20:24:21;;;;;;;56.07;52.47;;;;;;;6.85;100.00;103318.14;1914352;74;86526;-72
2022/01/27 20:30:08;;;;;;;55.37;51.97;;;;;;;7.32;100.00;103315.17;1951028;71;39604;-71
2022/01/27 20:35:54;;;;;;;58.27;54.30;;;;;;;7.58;100.00;103309.78;1891071;74;86317;-77
2022/01/27 20:41:39;;;;;;;53.97;50.47;;;;;;;7.89;100.00;103308.42;1826023;76;86364;-77
2022/01/27 20:47:24;;;;;;;55.50;51.90;;;;;;;7.71;100.00;103319.53;1905732;72;86505;-72
2022/01/27 20:53:10;;;;;;;59.37;55.67;;;;;;;6.83;100.00;103341.52;1984629;71;39733;-76
2022/01/27 20:58:57;;;;;;;59.10;55.40;;;;;;;6.32;100.00;103341.67;1812197;78;86137;-76
2022/01/27 21:04:42;;;;;;;63.43;59.23;;;;;;;6.60;100.00;103365.72;1834856;76;86656;-72
2022/01/27 21:10:25;;;;;;;61.77;57.57;;;;;;;6.30;100.00;103373.27;1912434;74;86387;-74
2022/01/27 21:16:09;;;;;;;65.50;61.50;;;;;;;6.50;100.00;103364.69;1980273;71;39612;-75
2022/01/27 21:21:54;;;;;;;56.70;52.87;;;;;;;6.34;100.00;103379.58;1842682;76;86035;-73
2022/01/27 21:27:39;;;;;;;59.03;55.17;;;;;;;5.89;100.00;103406.09;1832903;76;86690;-77
2022/01/27 21:33:29;;;;;;;62.40;58.20;;;;;;;5.88;100.00;103411.27;1948327;72;86113;-73
2022/01/27 21:39:13;;;;;;;63.70;59.27;;;;;;;5.67;100.00;103430.47;1926570;72;86797;-76
2022/01/27 21:44:57;;;;;;;61.93;57.67;;;;;;;5.71;100.00;103444.20;1797050;78;86221;-73
2022/01/27 21:50:46;;;;;;;62.67;58.00;;;;;;;5.94;100.00;103462.94;1844698;76;86875;-76
2022/01/27 21:56:29;;;;;;;61.73;57.43;;;;;;;5.64;100.00;103457.05;1876598;75;86565;-71
2022/01/27 22:02:14;;;;;;;63.77;59.37;;;;;;;6.01;100.00;103473.53;1941674;73;86077;-75
2022/01/27 22:07:58;;;;;;;63.00;58.50;;;;;;;6.25;100.00;103467.69;1869358;76;86197;-75
2022/01/27 22:13:42;;;;;;;61.40;56.80;;;;;;;6.13;100.00;103467.00;1809896;78;85784;-75
2022/01/27 22:19:27;;;;;;;63.43;59.07;;;;;;;5.57;100.00;103460.20;1909293;74;86084;-72
2022/01/27 22:25:16;;;;;;;63.10;58.63;;;;;;;5.45;100.00;103452.41;1841637;77;86557;-76
2022/01/27 22:31:00;;;;;;;63.33;59.23;;;;;;;5.54;100.00;103459.21;1944137;71;39692;-72
2022/01/27 22:36:45;;;;;;;66.90;62.13;;;;;;;5.73;100.00;103471.08;1883089;75;86452;-77
2022/01/27 22:42:29;;;;;;;59.40;55.20;;;;;;;5.31;100.00;103483.55;1883040;75;86290;-75
2022/01/27 22:48:14;;;;;;;62.90;58.47;;;;;;;5.00;100.00;103489.17;1923665;73;85877;-73
2022/01/27 22:53:58;;;;;;;63.90;59.40;;;;;;;4.76;100.00;103489.32;1979694;71;39728;-73
2022/01/27 22:59:42;;;;;;;70.80;65.70;;;;;;;4.93;100.00;103514.34;1883114;74;85292;-72
2022/01/27 23:05:27;;;;;;;64.30;59.83;;;;;;;4.95;100.00;103492.13;1932371;73;86521;-71
2022/01/27 23:11:12;;;;;;;67.77;62.60;;;;;;;4.87;100.00;103504.06;1815384;78;86561;-71
2022/01/27 23:17:09;;;;;;;91.53;83.63;;;;;;;4.95;100.00;103504.01;1984558;71;40250;-69
2022/01/27 23:22:49;;;;;;;72.00;66.07;;;;;;;4.69;100.00;103516.39;1848364;76;86329;-75
2022/01/27 23:28:38;;;;;;;70.00;64.73;;;;;;;4.39;100.00;103535.48;1882443;73;86535;-76
2022/01/27 23:34:23;;;;;;;70.63;65.10;;;;;;;4.41;100.00;103527.88;1911611;74;86463;-75
2022/01/27 23:40:28;;;;;;;66.60;61.70;;;;;;;4.09;100.00;103538.52;1985852;71;39552;-74
2022/01/27 23:46:15;;;;;;;75.30;69.13;;;;;;;4.11;100.00;103537.80;1983861;71;39650;-73
2022/01/27 23:52:00;;;;;;;68.10;62.40;;;;;;;3.90;100.00;103551.78;1856148;75;86218;-74
2022/01/27 23:57:46;;;;;;;67.63;61.97;;;;;;;3.87;100.00;103558.51;1801515;78;86368;-73
